sensor_id;sensor_type;location;lat;lon;timestamp;P1;durP1;ratioP1;P2;durP2;ratioP2
18013;SDS011;9132;47.946;10.394;2023-08-31T00:00:19;2.10;;;1.90;;
18013;SDS011;9132;47.946;10.394;2023-08-31T00:02:45;2.50;;;2.30;;
18013;SDS011;9132;47.946;10.394;2023-08-31T00:05:11;2.53;;;2.33;;
18013;SDS011;9132;47.946;10.394;2023-08-31T00:07:38;2.13;;;1.93;;
18013;SDS011;9132;47.946;10.394;2023-08-31T00:10:05;3.07;;;2.53;;
18013;SDS011;9132;47.946;10.394;2023-08-31T00:12:34;2.60;;;2.17;;
18013;SDS011;9132;47.946;10.394;2023-08-31T00:15:01;2.87;;;2.20;;
18013;SDS011;9132;47.946;10.394;2023-08-31T00:17:29;1.83;;;1.73;;
18013;SDS011;9132;47.946;10.394;2023-08-31T00:19:55;3.03;;;2.30;;
18013;SDS011;9132;47.946;10.394;2023-08-31T00:22:21;2.90;;;2.30;;
18013;SDS011;9132;47.946;10.394;2023-08-31T00:24:49;2.87;;;2.30;;
18013;SDS011;9132;47.946;10.394;2023-08-31T00:27:16;2.40;;;2.20;;
18013;SDS011;9132;47.946;10.394;2023-08-31T00:29:42;2.90;;;2.30;;
18013;SDS011;9132;47.946;10.394;2023-08-31T00:32:11;2.70;;;2.50;;
18013;SDS011;9132;47.946;10.394;2023-08-31T00:34:40;2.60;;;2.40;;
18013;SDS011;9132;47.946;10.394;2023-08-31T00:37:06;3.87;;;2.37;;
18013;SDS011;9132;47.946;10.394;2023-08-31T00:39:33;3.23;;;2.40;;
18013;SDS011;9132;47.946;10.394;2023-08-31T00:42:00;3.00;;;2.80;;
18013;SDS011;9132;47.946;10.394;2023-08-31T00:44:26;3.17;;;2.40;;
18013;SDS011;9132;47.946;10.394;2023-08-31T00:46:53;4.60;;;2.27;;
18013;SDS011;9132;47.946;10.394;2023-08-31T00:49:20;2.60;;;2.40;;
18013;SDS011;9132;47.946;10.394;2023-08-31T00:51:48;2.60;;;2.40;;
18013;SDS011;9132;47.946;10.394;2023-08-31T00:54:15;3.17;;;2.40;;
18013;SDS011;9132;47.946;10.394;2023-08-31T00:56:42;5.23;;;2.50;;
18013;SDS011;9132;47.946;10.394;2023-08-31T00:59:09;2.83;;;2.50;;
18013;SDS011;9132;47.946;10.394;2023-08-31T01:01:36;3.13;;;2.40;;
18013;SDS011;9132;47.946;10.394;2023-08-31T01:04:08;2.77;;;2.47;;
18013;SDS011;9132;47.946;10.394;2023-08-31T01:06:40;2.80;;;2.60;;
18013;SDS011;9132;47.946;10.394;2023-08-31T01:09:23;2.50;;;2.30;;
18013;SDS011;9132;47.946;10.394;2023-08-31T01:11:55;4.10;;;2.70;;
18013;SDS011;9132;47.946;10.394;2023-08-31T01:14:23;2.63;;;2.43;;
18013;SDS011;9132;47.946;10.394;2023-08-31T01:16:50;2.50;;;2.27;;
18013;SDS011;9132;47.946;10.394;2023-08-31T01:19:17;2.73;;;2.53;;
18013;SDS011;9132;47.946;10.394;2023-08-31T01:21:50;2.80;;;2.40;;
18013;SDS011;9132;47.946;10.394;2023-08-31T01:24:19;3.17;;;2.53;;
18013;SDS011;9132;47.946;10.394;2023-08-31T01:26:45;2.63;;;2.43;;
18013;SDS011;9132;47.946;10.394;2023-08-31T01:29:12;2.80;;;2.60;;
18013;SDS011;9132;47.946;10.394;2023-08-31T01:31:41;2.80;;;2.60;;
18013;SDS011;9132;47.946;10.394;2023-08-31T01:34:08;3.23;;;2.93;;
18013;SDS011;9132;47.946;10.394;2023-08-31T01:36:35;4.07;;;3.00;;
18013;SDS011;9132;47.946;10.394;2023-08-31T01:39:03;4.40;;;3.10;;
18013;SDS011;9132;47.946;10.394;2023-08-31T01:41:34;3.43;;;3.03;;
18013;SDS011;9132;47.946;10.394;2023-08-31T01:44:01;5.00;;;2.90;;
18013;SDS011;9132;47.946;10.394;2023-08-31T01:46:28;2.80;;;2.60;;
18013;SDS011;9132;47.946;10.394;2023-08-31T01:48:54;3.27;;;2.97;;
18013;SDS011;9132;47.946;10.394;2023-08-31T01:51:21;3.10;;;2.80;;
18013;SDS011;9132;47.946;10.394;2023-08-31T01:53:47;4.73;;;2.80;;
18013;SDS011;9132;47.946;10.394;2023-08-31T01:56:14;3.50;;;3.20;;
18013;SDS011;9132;47.946;10.394;2023-08-31T01:58:41;3.27;;;2.97;;
18013;SDS011;9132;47.946;10.394;2023-08-31T02:01:08;4.80;;;3.03;;
18013;SDS011;9132;47.946;10.394;2023-08-31T02:03:34;3.73;;;3.27;;
18013;SDS011;9132;47.946;10.394;2023-08-31T02:06:00;3.80;;;3.23;;
18013;SDS011;9132;47.946;10.394;2023-08-31T02:08:27;3.73;;;3.43;;
18013;SDS011;9132;47.946;10.394;2023-08-31T02:10:53;4.10;;;3.70;;
18013;SDS011;9132;47.946;10.394;2023-08-31T02:13:20;3.97;;;3.67;;
18013;SDS011;9132;47.946;10.394;2023-08-31T02:15:47;4.53;;;4.13;;
18013;SDS011;9132;47.946;10.394;2023-08-31T02:18:17;4.97;;;4.07;;
18013;SDS011;9132;47.946;10.394;2023-08-31T02:20:43;4.60;;;4.00;;
18013;SDS011;9132;47.946;10.394;2023-08-31T02:23:09;4.33;;;3.90;;
18013;SDS011;9132;47.946;10.394;2023-08-31T02:25:37;4.10;;;3.80;;
18013;SDS011;9132;47.946;10.394;2023-08-31T02:28:03;3.97;;;3.57;;
18013;SDS011;9132;47.946;10.394;2023-08-31T02:30:29;3.87;;;3.57;;
18013;SDS011;9132;47.946;10.394;2023-08-31T02:32:57;3.97;;;3.53;;
18013;SDS011;9132;47.946;10.394;2023-08-31T02:35:24;4.17;;;3.77;;
18013;SDS011;9132;47.946;10.394;2023-08-31T02:37:50;4.20;;;3.80;;
18013;SDS011;9132;47.946;10.394;2023-08-31T02:40:17;4.30;;;3.70;;
18013;SDS011;9132;47.946;10.394;2023-08-31T02:42:43;4.07;;;3.60;;
18013;SDS011;9132;47.946;10.394;2023-08-31T02:45:09;6.07;;;3.70;;
18013;SDS011;9132;47.946;10.394;2023-08-31T02:47:36;3.87;;;3.57;;
18013;SDS011;9132;47.946;10.394;2023-08-31T02:50:04;5.17;;;3.80;;
18013;SDS011;9132;47.946;10.394;2023-08-31T02:52:30;4.17;;;3.47;;
18013;SDS011;9132;47.946;10.394;2023-08-31T02:54:57;4.27;;;3.50;;
18013;SDS011;9132;47.946;10.394;2023-08-31T02:57:23;4.57;;;4.17;;
18013;SDS011;9132;47.946;10.394;2023-08-31T02:59:49;4.50;;;4.10;;
18013;SDS011;9132;47.946;10.394;2023-08-31T03:02:16;4.83;;;4.00;;
18013;SDS011;9132;47.946;10.394;2023-08-31T03:04:42;4.67;;;4.27;;
18013;SDS011;9132;47.946;10.394;2023-08-31T03:07:09;4.97;;;4.00;;
18013;SDS011;9132;47.946;10.394;2023-08-31T03:09:38;4.63;;;4.23;;
18013;SDS011;9132;47.946;10.394;2023-08-31T03:12:05;4.87;;;4.00;;
18013;SDS011;9132;47.946;10.394;2023-08-31T03:14:31;4.30;;;3.90;;
18013;SDS011;9132;47.946;10.394;2023-08-31T03:16:57;4.33;;;3.90;;
18013;SDS011;9132;47.946;10.394;2023-08-31T03:19:24;4.73;;;4.33;;
18013;SDS011;9132;47.946;10.394;2023-08-31T03:21:50;4.00;;;3.70;;
18013;SDS011;9132;47.946;10.394;2023-08-31T03:24:18;6.80;;;4.40;;
18013;SDS011;9132;47.946;10.394;2023-08-31T03:26:44;5.13;;;4.43;;
18013;SDS011;9132;47.946;10.394;2023-08-31T03:29:10;4.17;;;3.73;;
18013;SDS011;9132;47.946;10.394;2023-08-31T03:31:36;4.40;;;4.00;;
18013;SDS011;9132;47.946;10.394;2023-08-31T03:34:03;4.60;;;3.90;;
18013;SDS011;9132;47.946;10.394;2023-08-31T03:36:29;5.07;;;3.80;;
18013;SDS011;9132;47.946;10.394;2023-08-31T03:38:55;4.33;;;3.70;;
18013;SDS011;9132;47.946;10.394;2023-08-31T03:41:23;4.77;;;3.80;;
18013;SDS011;9132;47.946;10.394;2023-08-31T03:43:50;4.03;;;3.63;;
18013;SDS011;9132;47.946;10.394;2023-08-31T03:46:16;3.57;;;3.10;;
18013;SDS011;9132;47.946;10.394;2023-08-31T03:48:42;3.40;;;3.10;;
18013;SDS011;9132;47.946;10.394;2023-08-31T03:51:09;3.00;;;2.80;;
18013;SDS011;9132;47.946;10.394;2023-08-31T03:53:35;3.27;;;2.97;;
18013;SDS011;9132;47.946;10.394;2023-08-31T03:56:01;4.03;;;3.03;;
18013;SDS011;9132;47.946;10.394;2023-08-31T03:58:30;3.10;;;2.83;;
18013;SDS011;9132;47.946;10.394;2023-08-31T04:00:57;3.60;;;3.00;;
18013;SDS011;9132;47.946;10.394;2023-08-31T04:03:23;3.43;;;2.70;;
18013;SDS011;9132;47.946;10.394;2023-08-31T04:05:53;3.57;;;2.93;;
18013;SDS011;9132;47.946;10.394;2023-08-31T04:08:19;4.63;;;3.00;;
18013;SDS011;9132;47.946;10.394;2023-08-31T04:10:45;3.20;;;2.90;;
18013;SDS011;9132;47.946;10.394;2023-08-31T04:13:12;2.80;;;2.60;;
18013;SDS011;9132;47.946;10.394;2023-08-31T04:15:39;3.97;;;2.77;;
18013;SDS011;9132;47.946;10.394;2023-08-31T04:18:06;3.13;;;2.60;;
18013;SDS011;9132;47.946;10.394;2023-08-31T04:20:33;3.03;;;2.83;;
18013;SDS011;9132;47.946;10.394;2023-08-31T04:22:59;3.10;;;2.80;;
18013;SDS011;9132;47.946;10.394;2023-08-31T04:25:28;2.40;;;2.20;;
18013;SDS011;9132;47.946;10.394;2023-08-31T04:27:54;3.27;;;2.80;;
18013;SDS011;9132;47.946;10.394;2023-08-31T04:30:21;3.17;;;2.53;;
18013;SDS011;9132;47.946;10.394;2023-08-31T04:32:49;2.73;;;2.53;;
18013;SDS011;9132;47.946;10.394;2023-08-31T04:35:15;2.57;;;2.37;;
18013;SDS011;9132;47.946;10.394;2023-08-31T04:37:42;2.57;;;2.37;;
18013;SDS011;9132;47.946;10.394;2023-08-31T04:40:10;2.60;;;2.40;;
18013;SDS011;9132;47.946;10.394;2023-08-31T04:42:37;3.07;;;2.20;;
18013;SDS011;9132;47.946;10.394;2023-08-31T04:45:04;4.80;;;2.47;;
18013;SDS011;9132;47.946;10.394;2023-08-31T04:47:30;2.87;;;2.30;;
18013;SDS011;9132;47.946;10.394;2023-08-31T04:49:59;2.30;;;2.10;;
18013;SDS011;9132;47.946;10.394;2023-08-31T04:52:25;4.17;;;2.07;;
18013;SDS011;9132;47.946;10.394;2023-08-31T04:54:51;4.27;;;2.00;;
18013;SDS011;9132;47.946;10.394;2023-08-31T04:57:18;2.87;;;2.40;;
18013;SDS011;9132;47.946;10.394;2023-08-31T04:59:44;2.40;;;2.20;;
18013;SDS011;9132;47.946;10.394;2023-08-31T05:02:11;2.80;;;2.00;;
18013;SDS011;9132;47.946;10.394;2023-08-31T05:04:37;2.60;;;2.10;;
18013;SDS011;9132;47.946;10.394;2023-08-31T05:07:05;3.10;;;2.30;;
18013;SDS011;9132;47.946;10.394;2023-08-31T05:09:31;3.40;;;2.13;;
18013;SDS011;9132;47.946;10.394;2023-08-31T05:12:00;3.33;;;2.70;;
18013;SDS011;9132;47.946;10.394;2023-08-31T05:14:26;4.00;;;2.67;;
18013;SDS011;9132;47.946;10.394;2023-08-31T05:16:52;4.33;;;2.77;;
18013;SDS011;9132;47.946;10.394;2023-08-31T05:19:19;3.17;;;1.90;;
18013;SDS011;9132;47.946;10.394;2023-08-31T05:21:45;2.90;;;2.57;;
18013;SDS011;9132;47.946;10.394;2023-08-31T05:24:13;3.10;;;2.03;;
18013;SDS011;9132;47.946;10.394;2023-08-31T05:26:39;4.00;;;2.50;;
18013;SDS011;9132;47.946;10.394;2023-08-31T05:29:06;4.63;;;2.40;;
18013;SDS011;9132;47.946;10.394;2023-08-31T05:31:32;2.07;;;1.87;;
18013;SDS011;9132;47.946;10.394;2023-08-31T05:33:58;4.37;;;2.40;;
18013;SDS011;9132;47.946;10.394;2023-08-31T05:36:24;2.90;;;2.17;;
18013;SDS011;9132;47.946;10.394;2023-08-31T05:38:51;4.80;;;2.00;;
18013;SDS011;9132;47.946;10.394;2023-08-31T05:41:19;4.60;;;2.43;;
18013;SDS011;9132;47.946;10.394;2023-08-31T05:43:46;4.83;;;2.50;;
18013;SDS011;9132;47.946;10.394;2023-08-31T05:46:12;3.97;;;2.47;;
18013;SDS011;9132;47.946;10.394;2023-08-31T05:48:38;3.00;;;2.27;;
18013;SDS011;9132;47.946;10.394;2023-08-31T05:51:05;3.73;;;2.37;;
18013;SDS011;9132;47.946;10.394;2023-08-31T05:53:31;5.20;;;2.83;;
18013;SDS011;9132;47.946;10.394;2023-08-31T05:55:58;5.00;;;2.40;;
18013;SDS011;9132;47.946;10.394;2023-08-31T05:58:30;3.13;;;2.03;;
18013;SDS011;9132;47.946;10.394;2023-08-31T06:00:56;3.77;;;2.30;;
18013;SDS011;9132;47.946;10.394;2023-08-31T06:03:23;3.70;;;2.60;;
18013;SDS011;9132;47.946;10.394;2023-08-31T06:05:49;4.67;;;2.57;;
18013;SDS011;9132;47.946;10.394;2023-08-31T06:08:16;4.03;;;2.17;;
18013;SDS011;9132;47.946;10.394;2023-08-31T06:10:42;3.77;;;2.13;;
18013;SDS011;9132;47.946;10.394;2023-08-31T06:13:08;2.87;;;2.37;;
18013;SDS011;9132;47.946;10.394;2023-08-31T06:15:36;3.00;;;2.40;;
18013;SDS011;9132;47.946;10.394;2023-08-31T06:18:04;3.30;;;2.30;;
18013;SDS011;9132;47.946;10.394;2023-08-31T06:20:30;2.80;;;2.20;;
18013;SDS011;9132;47.946;10.394;2023-08-31T06:22:56;3.27;;;2.60;;
18013;SDS011;9132;47.946;10.394;2023-08-31T06:25:23;3.30;;;2.33;;
18013;SDS011;9132;47.946;10.394;2023-08-31T06:27:49;2.47;;;2.27;;
18013;SDS011;9132;47.946;10.394;2023-08-31T06:30:16;5.17;;;3.20;;
18013;SDS011;9132;47.946;10.394;2023-08-31T06:32:45;3.90;;;2.90;;
18013;SDS011;9132;47.946;10.394;2023-08-31T06:35:12;4.10;;;2.87;;
18013;SDS011;9132;47.946;10.394;2023-08-31T06:37:40;3.77;;;3.10;;
18013;SDS011;9132;47.946;10.394;2023-08-31T06:40:07;6.23;;;2.63;;
18013;SDS011;9132;47.946;10.394;2023-08-31T06:42:34;4.50;;;2.57;;
18013;SDS011;9132;47.946;10.394;2023-08-31T06:45:00;5.17;;;2.70;;
18013;SDS011;9132;47.946;10.394;2023-08-31T06:47:27;5.13;;;2.77;;
18013;SDS011;9132;47.946;10.394;2023-08-31T06:49:54;3.73;;;2.47;;
18013;SDS011;9132;47.946;10.394;2023-08-31T06:52:22;3.57;;;2.43;;
18013;SDS011;9132;47.946;10.394;2023-08-31T06:54:49;3.83;;;2.93;;
18013;SDS011;9132;47.946;10.394;2023-08-31T06:57:15;4.43;;;3.10;;
18013;SDS011;9132;47.946;10.394;2023-08-31T06:59:41;3.43;;;2.70;;
18013;SDS011;9132;47.946;10.394;2023-08-31T07:02:09;3.70;;;2.60;;
18013;SDS011;9132;47.946;10.394;2023-08-31T07:04:35;3.43;;;3.00;;
18013;SDS011;9132;47.946;10.394;2023-08-31T07:07:03;3.30;;;3.00;;
18013;SDS011;9132;47.946;10.394;2023-08-31T07:09:30;4.03;;;3.20;;
18013;SDS011;9132;47.946;10.394;2023-08-31T07:11:56;3.50;;;3.20;;
18013;SDS011;9132;47.946;10.394;2023-08-31T07:14:23;3.23;;;2.83;;
18013;SDS011;9132;47.946;10.394;2023-08-31T07:16:49;3.87;;;3.10;;
18013;SDS011;9132;47.946;10.394;2023-08-31T07:19:16;5.03;;;3.40;;
18013;SDS011;9132;47.946;10.394;2023-08-31T07:21:42;3.90;;;3.40;;
18013;SDS011;9132;47.946;10.394;2023-08-31T07:24:10;5.63;;;4.10;;
18013;SDS011;9132;47.946;10.394;2023-08-31T07:26:36;3.87;;;3.47;;
18013;SDS011;9132;47.946;10.394;2023-08-31T07:29:02;4.87;;;3.37;;
18013;SDS011;9132;47.946;10.394;2023-08-31T07:31:29;4.07;;;3.47;;
18013;SDS011;9132;47.946;10.394;2023-08-31T07:33:56;3.73;;;3.17;;
18013;SDS011;9132;47.946;10.394;2023-08-31T07:36:22;4.23;;;3.30;;
18013;SDS011;9132;47.946;10.394;2023-08-31T07:38:48;3.10;;;2.83;;
18013;SDS011;9132;47.946;10.394;2023-08-31T07:41:16;2.57;;;2.37;;
18013;SDS011;9132;47.946;10.394;2023-08-31T07:43:42;2.97;;;2.20;;
18013;SDS011;9132;47.946;10.394;2023-08-31T07:46:09;2.93;;;2.00;;
18013;SDS011;9132;47.946;10.394;2023-08-31T07:48:35;2.70;;;1.93;;
18013;SDS011;9132;47.946;10.394;2023-08-31T07:51:01;2.33;;;1.90;;
18013;SDS011;9132;47.946;10.394;2023-08-31T07:53:28;2.33;;;1.67;;
18013;SDS011;9132;47.946;10.394;2023-08-31T07:55:55;3.63;;;1.97;;
18013;SDS011;9132;47.946;10.394;2023-08-31T07:58:23;2.27;;;1.97;;
18013;SDS011;9132;47.946;10.394;2023-08-31T08:00:52;2.03;;;1.67;;
18013;SDS011;9132;47.946;10.394;2023-08-31T08:03:18;2.70;;;1.73;;
18013;SDS011;9132;47.946;10.394;2023-08-31T08:05:44;2.27;;;1.40;;
18013;SDS011;9132;47.946;10.394;2023-08-31T08:08:11;3.30;;;2.00;;
18013;SDS011;9132;47.946;10.394;2023-08-31T08:10:37;5.50;;;2.20;;
18013;SDS011;9132;47.946;10.394;2023-08-31T08:13:04;5.47;;;4.07;;
18013;SDS011;9132;47.946;10.394;2023-08-31T08:15:31;4.13;;;3.50;;
18013;SDS011;9132;47.946;10.394;2023-08-31T08:17:58;2.27;;;1.80;;
18013;SDS011;9132;47.946;10.394;2023-08-31T08:20:24;3.27;;;2.20;;
18013;SDS011;9132;47.946;10.394;2023-08-31T08:22:50;2.97;;;1.70;;
18013;SDS011;9132;47.946;10.394;2023-08-31T08:25:18;2.30;;;1.97;;
18013;SDS011;9132;47.946;10.394;2023-08-31T08:27:44;2.73;;;1.80;;
18013;SDS011;9132;47.946;10.394;2023-08-31T08:30:10;2.63;;;1.73;;
18013;SDS011;9132;47.946;10.394;2023-08-31T08:32:38;2.07;;;1.80;;
18013;SDS011;9132;47.946;10.394;2023-08-31T08:35:05;3.07;;;1.80;;
18013;SDS011;9132;47.946;10.394;2023-08-31T08:37:31;2.90;;;2.00;;
18013;SDS011;9132;47.946;10.394;2023-08-31T08:39:58;2.10;;;1.80;;
18013;SDS011;9132;47.946;10.394;2023-08-31T08:42:24;2.80;;;1.50;;
18013;SDS011;9132;47.946;10.394;2023-08-31T08:44:51;2.97;;;2.07;;
18013;SDS011;9132;47.946;10.394;2023-08-31T08:47:17;3.37;;;1.87;;
18013;SDS011;9132;47.946;10.394;2023-08-31T08:49:47;2.30;;;1.83;;
18013;SDS011;9132;47.946;10.394;2023-08-31T08:52:13;3.53;;;2.00;;
18013;SDS011;9132;47.946;10.394;2023-08-31T08:54:40;3.17;;;1.77;;
18013;SDS011;9132;47.946;10.394;2023-08-31T08:57:07;2.80;;;2.07;;
18013;SDS011;9132;47.946;10.394;2023-08-31T08:59:33;2.93;;;1.90;;
18013;SDS011;9132;47.946;10.394;2023-08-31T09:02:00;3.53;;;2.40;;
18013;SDS011;9132;47.946;10.394;2023-08-31T09:04:26;2.90;;;2.30;;
18013;SDS011;9132;47.946;10.394;2023-08-31T09:06:55;3.87;;;1.87;;
18013;SDS011;9132;47.946;10.394;2023-08-31T09:09:22;2.77;;;2.03;;
18013;SDS011;9132;47.946;10.394;2023-08-31T09:11:49;3.63;;;2.30;;
18013;SDS011;9132;47.946;10.394;2023-08-31T09:14:15;2.53;;;1.90;;
18013;SDS011;9132;47.946;10.394;2023-08-31T09:16:43;2.20;;;1.80;;
18013;SDS011;9132;47.946;10.394;2023-08-31T09:19:17;3.00;;;1.77;;
18013;SDS011;9132;47.946;10.394;2023-08-31T09:21:43;4.60;;;2.73;;
18013;SDS011;9132;47.946;10.394;2023-08-31T09:24:12;3.33;;;1.60;;
18013;SDS011;9132;47.946;10.394;2023-08-31T09:26:38;3.93;;;2.00;;
18013;SDS011;9132;47.946;10.394;2023-08-31T09:29:05;2.83;;;1.90;;
18013;SDS011;9132;47.946;10.394;2023-08-31T09:31:31;2.43;;;1.70;;
18013;SDS011;9132;47.946;10.394;2023-08-31T09:33:57;4.57;;;1.93;;
18013;SDS011;9132;47.946;10.394;2023-08-31T09:36:24;3.73;;;2.00;;
18013;SDS011;9132;47.946;10.394;2023-08-31T09:38:50;3.37;;;1.60;;
18013;SDS011;9132;47.946;10.394;2023-08-31T09:41:18;3.40;;;1.83;;
18013;SDS011;9132;47.946;10.394;2023-08-31T09:43:44;3.47;;;1.83;;
18013;SDS011;9132;47.946;10.394;2023-08-31T09:46:10;3.23;;;1.90;;
18013;SDS011;9132;47.946;10.394;2023-08-31T09:48:38;2.65;;;1.60;;
18013;SDS011;9132;47.946;10.394;2023-08-31T09:51:05;2.43;;;1.73;;
18013;SDS011;9132;47.946;10.394;2023-08-31T09:53:32;2.93;;;1.70;;
18013;SDS011;9132;47.946;10.394;2023-08-31T09:56:01;3.47;;;1.40;;
18013;SDS011;9132;47.946;10.394;2023-08-31T09:58:30;4.60;;;2.20;;
18013;SDS011;9132;47.946;10.394;2023-08-31T10:00:57;3.40;;;2.00;;
18013;SDS011;9132;47.946;10.394;2023-08-31T10:03:23;3.80;;;1.90;;
18013;SDS011;9132;47.946;10.394;2023-08-31T10:05:50;2.77;;;1.70;;
18013;SDS011;9132;47.946;10.394;2023-08-31T10:08:17;2.57;;;1.90;;
18013;SDS011;9132;47.946;10.394;2023-08-31T10:10:43;2.90;;;1.70;;
18013;SDS011;9132;47.946;10.394;2023-08-31T10:13:10;4.80;;;2.00;;
18013;SDS011;9132;47.946;10.394;2023-08-31T10:15:38;3.78;;;2.00;;
18013;SDS011;9132;47.946;10.394;2023-08-31T10:18:05;1.83;;;1.65;;
18013;SDS011;9132;47.946;10.394;2023-08-31T10:20:32;4.28;;;2.03;;
18013;SDS011;9132;47.946;10.394;2023-08-31T10:22:59;2.50;;;1.55;;
18013;SDS011;9132;47.946;10.394;2023-08-31T10:25:25;3.20;;;1.75;;
18013;SDS011;9132;47.946;10.394;2023-08-31T10:28:16;3.10;;;1.67;;
18013;SDS011;9132;47.946;10.394;2023-08-31T10:30:45;2.27;;;1.50;;
18013;SDS011;9132;47.946;10.394;2023-08-31T10:33:26;2.87;;;1.60;;
18013;SDS011;9132;47.946;10.394;2023-08-31T10:35:52;4.17;;;1.90;;
18013;SDS011;9132;47.946;10.394;2023-08-31T10:38:26;2.93;;;1.63;;
18013;SDS011;9132;47.946;10.394;2023-08-31T10:41:03;3.37;;;1.73;;
18013;SDS011;9132;47.946;10.394;2023-08-31T10:46:31;3.43;;;2.07;;
18013;SDS011;9132;47.946;10.394;2023-08-31T10:48:58;5.13;;;1.90;;
18013;SDS011;9132;47.946;10.394;2023-08-31T10:51:25;4.40;;;1.70;;
18013;SDS011;9132;47.946;10.394;2023-08-31T10:53:53;3.20;;;1.67;;
18013;SDS011;9132;47.946;10.394;2023-08-31T10:56:29;5.50;;;2.17;;
18013;SDS011;9132;47.946;10.394;2023-08-31T10:58:57;3.73;;;1.87;;
18013;SDS011;9132;47.946;10.394;2023-08-31T11:04:10;7.13;;;2.00;;
18013;SDS011;9132;47.946;10.394;2023-08-31T11:06:36;2.53;;;1.47;;
18013;SDS011;9132;47.946;10.394;2023-08-31T11:09:02;5.57;;;2.25;;
18013;SDS011;9132;47.946;10.394;2023-08-31T11:11:37;3.80;;;1.77;;
18013;SDS011;9132;47.946;10.394;2023-08-31T11:14:03;4.03;;;1.80;;
18013;SDS011;9132;47.946;10.394;2023-08-31T11:16:29;4.30;;;1.83;;
18013;SDS011;9132;47.946;10.394;2023-08-31T11:18:56;3.70;;;1.93;;
18013;SDS011;9132;47.946;10.394;2023-08-31T11:21:24;5.00;;;1.87;;
18013;SDS011;9132;47.946;10.394;2023-08-31T11:23:50;3.63;;;1.90;;
18013;SDS011;9132;47.946;10.394;2023-08-31T11:26:22;3.47;;;2.10;;
18013;SDS011;9132;47.946;10.394;2023-08-31T11:28:49;5.33;;;2.00;;
18013;SDS011;9132;47.946;10.394;2023-08-31T11:31:22;2.77;;;2.00;;
18013;SDS011;9132;47.946;10.394;2023-08-31T11:33:49;3.13;;;1.80;;
18013;SDS011;9132;47.946;10.394;2023-08-31T11:36:15;4.40;;;1.67;;
18013;SDS011;9132;47.946;10.394;2023-08-31T11:38:43;3.50;;;2.00;;
18013;SDS011;9132;47.946;10.394;2023-08-31T11:41:10;5.57;;;2.20;;
18013;SDS011;9132;47.946;10.394;2023-08-31T11:43:36;5.43;;;2.13;;
18013;SDS011;9132;47.946;10.394;2023-08-31T11:46:03;4.50;;;2.20;;
18013;SDS011;9132;47.946;10.394;2023-08-31T11:48:29;4.33;;;2.23;;
18013;SDS011;9132;47.946;10.394;2023-08-31T11:50:56;4.10;;;2.20;;
18013;SDS011;9132;47.946;10.394;2023-08-31T11:53:23;5.47;;;2.10;;
18013;SDS011;9132;47.946;10.394;2023-08-31T11:55:51;4.60;;;1.90;;
18013;SDS011;9132;47.946;10.394;2023-08-31T11:58:18;3.20;;;1.70;;
18013;SDS011;9132;47.946;10.394;2023-08-31T12:00:45;5.40;;;1.80;;
18013;SDS011;9132;47.946;10.394;2023-08-31T12:03:12;3.83;;;2.17;;
18013;SDS011;9132;47.946;10.394;2023-08-31T12:05:44;4.53;;;2.20;;
18013;SDS011;9132;47.946;10.394;2023-08-31T12:08:11;2.73;;;1.80;;
18013;SDS011;9132;47.946;10.394;2023-08-31T12:10:39;3.13;;;1.90;;
18013;SDS011;9132;47.946;10.394;2023-08-31T12:13:11;3.13;;;2.13;;
18013;SDS011;9132;47.946;10.394;2023-08-31T12:15:38;3.97;;;2.13;;
18013;SDS011;9132;47.946;10.394;2023-08-31T12:18:07;5.30;;;2.17;;
18013;SDS011;9132;47.946;10.394;2023-08-31T12:20:34;4.47;;;2.07;;
18013;SDS011;9132;47.946;10.394;2023-08-31T12:23:06;3.92;;;1.83;;
18013;SDS011;9132;47.946;10.394;2023-08-31T12:25:33;2.90;;;1.80;;
18013;SDS011;9132;47.946;10.394;2023-08-31T12:27:59;4.20;;;1.90;;
18013;SDS011;9132;47.946;10.394;2023-08-31T12:30:27;2.83;;;1.80;;
18013;SDS011;9132;47.946;10.394;2023-08-31T12:32:53;4.60;;;2.10;;
18013;SDS011;9132;47.946;10.394;2023-08-31T12:35:20;5.95;;;2.53;;
18013;SDS011;9132;47.946;10.394;2023-08-31T12:37:46;2.60;;;1.60;;
18013;SDS011;9132;47.946;10.394;2023-08-31T12:40:13;4.38;;;1.92;;
18013;SDS011;9132;47.946;10.394;2023-08-31T12:42:40;5.25;;;1.77;;
18013;SDS011;9132;47.946;10.394;2023-08-31T12:45:07;2.80;;;1.73;;
18013;SDS011;9132;47.946;10.394;2023-08-31T12:47:35;3.60;;;2.17;;
18013;SDS011;9132;47.946;10.394;2023-08-31T12:50:01;3.00;;;2.10;;
18013;SDS011;9132;47.946;10.394;2023-08-31T12:52:28;5.68;;;2.08;;
18013;SDS011;9132;47.946;10.394;2023-08-31T12:54:55;3.80;;;1.67;;
18013;SDS011;9132;47.946;10.394;2023-08-31T12:57:21;3.88;;;2.20;;
18013;SDS011;9132;47.946;10.394;2023-08-31T12:59:47;5.38;;;1.98;;
18013;SDS011;9132;47.946;10.394;2023-08-31T13:02:14;3.90;;;3.42;;
18013;SDS011;9132;47.946;10.394;2023-08-31T13:04:41;2.28;;;1.67;;
18013;SDS011;9132;47.946;10.394;2023-08-31T13:07:08;3.28;;;1.55;;
18013;SDS011;9132;47.946;10.394;2023-08-31T13:09:34;4.95;;;1.80;;
18013;SDS011;9132;47.946;10.394;2023-08-31T13:12:00;4.35;;;2.20;;
18013;SDS011;9132;47.946;10.394;2023-08-31T13:14:27;5.65;;;2.30;;
18013;SDS011;9132;47.946;10.394;2023-08-31T13:16:53;6.43;;;2.70;;
18013;SDS011;9132;47.946;10.394;2023-08-31T13:19:20;3.83;;;2.70;;
18013;SDS011;9132;47.946;10.394;2023-08-31T13:21:48;2.13;;;1.70;;
18013;SDS011;9132;47.946;10.394;2023-08-31T13:24:15;4.03;;;2.22;;
18013;SDS011;9132;47.946;10.394;2023-08-31T13:26:42;3.60;;;2.10;;
18013;SDS011;9132;47.946;10.394;2023-08-31T13:29:12;3.70;;;1.77;;
18013;SDS011;9132;47.946;10.394;2023-08-31T13:31:38;4.85;;;2.47;;
18013;SDS011;9132;47.946;10.394;2023-08-31T13:34:05;5.22;;;2.22;;
18013;SDS011;9132;47.946;10.394;2023-08-31T13:36:32;2.95;;;1.85;;
18013;SDS011;9132;47.946;10.394;2023-08-31T13:39:00;6.30;;;2.50;;
18013;SDS011;9132;47.946;10.394;2023-08-31T13:41:27;2.33;;;1.70;;
18013;SDS011;9132;47.946;10.394;2023-08-31T13:43:54;4.78;;;2.47;;
18013;SDS011;9132;47.946;10.394;2023-08-31T13:46:20;5.80;;;2.47;;
18013;SDS011;9132;47.946;10.394;2023-08-31T13:48:46;4.70;;;2.10;;
18013;SDS011;9132;47.946;10.394;2023-08-31T13:51:13;3.47;;;2.45;;
18013;SDS011;9132;47.946;10.394;2023-08-31T13:53:39;6.25;;;2.67;;
18013;SDS011;9132;47.946;10.394;2023-08-31T13:56:07;5.97;;;2.50;;
18013;SDS011;9132;47.946;10.394;2023-08-31T13:58:33;4.95;;;2.42;;
18013;SDS011;9132;47.946;10.394;2023-08-31T14:01:00;4.05;;;2.60;;
18013;SDS011;9132;47.946;10.394;2023-08-31T14:03:26;6.20;;;2.80;;
18013;SDS011;9132;47.946;10.394;2023-08-31T14:05:53;4.78;;;2.42;;
18013;SDS011;9132;47.946;10.394;2023-08-31T14:08:19;5.72;;;2.42;;
18013;SDS011;9132;47.946;10.394;2023-08-31T14:10:46;4.80;;;2.60;;
18013;SDS011;9132;47.946;10.394;2023-08-31T14:13:14;4.10;;;1.85;;
18013;SDS011;9132;47.946;10.394;2023-08-31T14:15:43;5.63;;;2.80;;
18013;SDS011;9132;47.946;10.394;2023-08-31T14:18:11;5.30;;;2.42;;
18013;SDS011;9132;47.946;10.394;2023-08-31T14:20:37;3.42;;;2.30;;
18013;SDS011;9132;47.946;10.394;2023-08-31T14:23:04;3.80;;;2.38;;
18013;SDS011;9132;47.946;10.394;2023-08-31T14:25:33;3.05;;;2.30;;
18013;SDS011;9132;47.946;10.394;2023-08-31T14:27:59;4.38;;;2.00;;
18013;SDS011;9132;47.946;10.394;2023-08-31T14:30:27;6.65;;;2.10;;
18013;SDS011;9132;47.946;10.394;2023-08-31T14:32:53;6.30;;;2.33;;
18013;SDS011;9132;47.946;10.394;2023-08-31T14:35:19;4.45;;;2.03;;
18013;SDS011;9132;47.946;10.394;2023-08-31T14:37:46;2.67;;;2.20;;
18013;SDS011;9132;47.946;10.394;2023-08-31T14:40:12;2.63;;;2.10;;
18013;SDS011;9132;47.946;10.394;2023-08-31T14:42:39;6.13;;;2.85;;
18013;SDS011;9132;47.946;10.394;2023-08-31T14:45:06;3.13;;;2.47;;
18013;SDS011;9132;47.946;10.394;2023-08-31T14:47:34;3.75;;;2.30;;
18013;SDS011;9132;47.946;10.394;2023-08-31T14:50:00;4.93;;;2.47;;
18013;SDS011;9132;47.946;10.394;2023-08-31T14:52:29;2.88;;;2.20;;